createdAt,value
2019-02-22T00:00:33.388Z,19.32
2019-02-22T00:01:33.360Z,19.38
2019-02-22T00:02:33.388Z,19.40
2019-02-22T00:03:33.347Z,19.45
2019-02-22T00:04:33.329Z,19.32
2019-02-22T00:05:33.326Z,19.39
2019-02-22T00:06:33.399Z,19.30
2019-02-22T00:07:33.304Z,19.39
2019-02-22T00:08:33.289Z,19.42
2019-02-22T00:09:33.282Z,19.35
2019-02-22T00:10:33.269Z,19.39
2019-02-22T00:11:33.398Z,19.35
2019-02-22T00:12:33.246Z,19.43
2019-02-22T00:13:33.255Z,19.39
2019-02-22T00:14:33.249Z,19.30
2019-02-22T00:15:33.218Z,19.34
2019-02-22T00:16:33.213Z,19.40
2019-02-22T00:17:33.405Z,19.43
2019-02-22T00:18:33.187Z,19.45
2019-02-22T00:19:33.171Z,19.40
2019-02-22T00:20:33.161Z,19.39
2019-02-22T00:21:33.443Z,19.39
2019-02-22T00:22:33.146Z,19.32
2019-02-22T00:23:33.121Z,19.34
2019-02-22T00:24:33.396Z,19.39
2019-02-22T00:25:33.103Z,19.45
2019-02-22T00:26:33.395Z,19.35
2019-02-22T00:27:33.398Z,19.38
2019-02-22T00:28:33.076Z,19.42
2019-02-22T00:29:33.058Z,19.39
2019-02-22T00:30:33.045Z,19.45
2019-02-22T00:31:33.061Z,19.43
2019-02-22T00:32:33.399Z,19.47
2019-02-22T00:33:33.025Z,19.35
2019-02-22T00:35:43.028Z,19.47
2019-02-22T00:36:43.041Z,19.42
2019-02-22T00:37:43.468Z,19.38
2019-02-22T00:38:42.952Z,19.47
2019-02-22T00:39:42.962Z,19.42
2019-02-22T00:40:42.951Z,19.42
2019-02-22T00:41:42.933Z,19.42
2019-02-22T00:42:42.937Z,19.34
2019-02-22T00:43:42.912Z,19.46
2019-02-22T00:44:42.896Z,19.40
2019-02-22T00:45:42.896Z,19.47
2019-02-22T00:46:42.886Z,19.50
2019-02-22T00:47:42.967Z,19.47
2019-02-22T00:48:42.842Z,19.45
2019-02-22T00:49:42.832Z,19.46
2019-02-22T00:50:42.819Z,19.40
2019-02-22T00:51:42.809Z,19.46
2019-02-22T00:52:42.996Z,19.45
2019-02-22T00:53:42.811Z,19.50
2019-02-22T00:54:42.796Z,19.49
2019-02-22T00:55:42.778Z,19.47
2019-02-22T00:56:42.781Z,19.49
2019-02-22T00:57:42.973Z,19.45
2019-02-22T00:58:42.977Z,19.45
2019-02-22T00:59:42.733Z,19.55
2019-02-22T01:00:42.719Z,19.49
2019-02-22T01:01:42.701Z,19.50
2019-02-22T01:02:42.691Z,19.49
2019-02-22T01:03:42.967Z,19.45
2019-02-22T01:04:42.688Z,19.46
2019-02-22T01:05:42.662Z,19.43
2019-02-22T01:06:42.652Z,19.45
2019-02-22T01:07:42.642Z,19.47
2019-02-22T01:08:42.631Z,19.47
2019-02-22T01:09:42.968Z,19.45
2019-02-22T01:10:42.626Z,19.43
2019-02-22T01:11:42.604Z,19.46
2019-02-22T01:12:42.588Z,19.45
2019-02-22T01:13:42.578Z,19.53
2019-02-22T01:14:42.975Z,19.43
2019-02-22T01:15:42.564Z,19.45
2019-02-22T01:16:42.543Z,19.49
2019-02-22T01:17:42.538Z,19.49
2019-02-22T01:18:42.998Z,19.52
2019-02-22T01:19:42.531Z,19.53
2019-02-22T01:20:51.561Z,19.50
2019-02-22T01:21:43.496Z,19.53
2019-02-22T01:22:42.484Z,19.52
2019-02-22T01:23:42.976Z,19.53
2019-02-22T01:24:42.461Z,19.43
2019-02-22T01:25:42.460Z,19.49
2019-02-22T01:26:42.451Z,19.49
2019-02-22T01:27:42.432Z,19.52
2019-02-22T01:28:42.499Z,19.50
2019-02-22T01:29:42.415Z,19.47
2019-02-22T01:30:42.405Z,19.55
2019-02-22T01:31:42.398Z,19.52
2019-02-22T01:32:42.398Z,19.52
2019-02-22T01:33:42.477Z,19.50
2019-02-22T01:34:42.360Z,19.52
2019-02-22T01:35:42.378Z,19.50
2019-02-22T01:36:42.343Z,19.46
2019-02-22T01:37:42.320Z,19.52
2019-02-22T01:38:42.310Z,19.52
2019-02-22T01:39:42.300Z,19.52
2019-02-22T01:40:44.079Z,19.46
2019-02-22T01:41:42.361Z,19.52
2019-02-22T01:42:42.278Z,19.49
2019-02-22T01:43:42.262Z,19.52
2019-02-22T01:44:42.246Z,19.46
2019-02-22T01:45:42.239Z,19.52
2019-02-22T01:46:42.497Z,19.50
2019-02-22T01:47:42.235Z,19.52
2019-02-22T01:48:42.220Z,19.52
2019-02-22T01:49:42.200Z,19.46
2019-02-22T01:50:42.194Z,19.52
2019-02-22T01:51:42.478Z,19.50
2019-02-22T01:52:42.159Z,19.50
2019-02-22T01:53:42.149Z,19.46
2019-02-22T01:54:42.149Z,19.49
2019-02-22T01:55:42.130Z,19.42
2019-02-22T01:56:42.133Z,19.50
2019-02-22T01:57:42.491Z,19.57
2019-02-22T01:58:48.704Z,19.50
2019-02-22T01:59:43.092Z,19.50
2019-02-22T02:00:42.075Z,19.47
2019-02-22T02:01:42.064Z,19.42
2019-02-22T02:02:42.057Z,19.49
2019-02-22T02:03:42.063Z,19.43
2019-02-22T02:04:42.032Z,19.45
2019-02-22T02:05:42.037Z,19.49
2019-02-22T02:06:42.017Z,19.52
2019-02-22T02:07:42.004Z,19.49
2019-02-22T02:08:42.029Z,19.47
2019-02-22T02:09:41.985Z,19.49
2019-02-22T02:10:41.969Z,19.46
2019-02-22T02:11:41.973Z,19.49
2019-02-22T02:12:41.949Z,19.45
2019-02-22T02:13:41.985Z,19.47
2019-02-22T02:14:41.930Z,19.50
2019-02-22T02:15:41.917Z,19.43
2019-02-22T02:16:41.982Z,19.46
2019-02-22T02:17:41.914Z,19.52
2019-02-22T02:18:41.884Z,19.46
2019-02-22T02:19:41.870Z,19.45
2019-02-22T02:20:41.889Z,19.47
2019-02-22T02:21:42.012Z,19.46
2019-02-22T02:22:42.005Z,19.45
2019-02-22T02:23:41.837Z,19.47
2019-02-22T02:24:41.822Z,19.45
2019-02-22T02:25:41.819Z,19.43
2019-02-22T02:26:41.797Z,19.45
2019-02-22T02:27:41.980Z,19.50
2019-02-22T02:28:41.990Z,19.43
2019-02-22T02:29:42.030Z,19.45
2019-02-22T02:30:41.770Z,19.52
2019-02-22T02:31:41.766Z,19.42
2019-02-22T02:32:41.746Z,19.46
2019-02-22T02:33:41.734Z,19.43
2019-02-22T02:34:41.725Z,19.43
2019-02-22T02:35:41.770Z,19.42
2019-02-22T02:36:41.701Z,19.43
2019-02-22T02:37:41.684Z,19.43
2019-02-22T02:38:41.679Z,19.39
2019-02-22T02:39:41.668Z,19.40
2019-02-22T02:40:41.991Z,19.42
2019-02-22T02:41:41.646Z,19.52
2019-02-22T02:42:41.628Z,19.46
2019-02-22T02:43:41.621Z,19.35
2019-02-22T02:44:41.618Z,19.31
2019-02-22T02:45:41.992Z,19.42
2019-02-22T02:46:41.997Z,19.34
2019-02-22T02:47:41.582Z,19.43
2019-02-22T02:48:41.563Z,19.35
2019-02-22T02:49:41.564Z,19.39
2019-02-22T02:50:41.543Z,19.43
2019-02-22T02:51:41.550Z,19.39
2019-02-22T02:52:42.001Z,19.40
2019-02-22T02:53:41.521Z,19.34
2019-02-22T02:54:41.497Z,19.34
2019-02-22T02:55:41.490Z,19.38
2019-02-22T02:56:41.476Z,19.39
2019-02-22T02:57:41.468Z,19.38
2019-02-22T02:58:41.515Z,19.39
2019-02-22T02:59:41.453Z,19.34
2019-02-22T03:00:41.448Z,19.42
2019-02-22T03:01:41.441Z,19.43
2019-02-22T03:02:41.427Z,19.27
2019-02-22T03:03:41.505Z,19.40
2019-02-22T03:04:41.402Z,19.40
2019-02-22T03:05:41.389Z,19.35
2019-02-22T03:06:41.371Z,19.42
2019-02-22T03:07:41.366Z,19.43
2019-02-22T03:08:41.504Z,19.43
2019-02-22T03:09:41.500Z,19.43
2019-02-22T03:10:41.339Z,19.40
2019-02-22T03:11:41.333Z,19.38
2019-02-22T03:12:41.313Z,19.38
2019-02-22T03:13:41.509Z,19.35
2019-02-22T03:14:41.294Z,19.39
2019-02-22T03:15:41.282Z,19.32
2019-02-22T03:16:41.265Z,19.35
2019-02-22T03:17:41.256Z,19.34
2019-02-22T03:18:41.515Z,19.42
2019-02-22T03:19:41.238Z,19.40
2019-02-22T03:20:41.234Z,19.35
2019-02-22T03:21:41.213Z,19.32
2019-02-22T03:22:41.209Z,19.39
2019-02-22T03:23:41.510Z,19.34
2019-02-22T03:24:41.193Z,19.32
2019-02-22T03:25:41.172Z,19.32
2019-02-22T03:26:41.170Z,19.35
2019-02-22T03:27:41.155Z,19.38
2019-02-22T03:28:41.168Z,19.32
2019-02-22T03:29:41.141Z,19.30
2019-02-22T03:30:41.506Z,19.30
2019-02-22T03:31:41.131Z,19.34
2019-02-22T03:32:41.140Z,19.38
2019-02-22T03:33:41.089Z,19.32
2019-02-22T03:34:41.082Z,19.34
2019-02-22T03:35:41.088Z,19.34
2019-02-22T03:36:41.499Z,19.34
2019-02-22T03:37:41.080Z,19.32
2019-02-22T03:38:41.034Z,19.31
2019-02-22T03:39:41.024Z,19.35
2019-02-22T03:40:41.016Z,19.34
2019-02-22T03:41:41.001Z,19.35
2019-02-22T03:42:41.495Z,19.38
2019-02-22T03:43:40.992Z,19.31
2019-02-22T03:44:40.967Z,19.31
2019-02-22T03:45:40.960Z,19.32
2019-02-22T03:46:40.983Z,19.28
2019-02-22T03:47:40.938Z,19.31
2019-02-22T03:48:40.927Z,19.30
2019-02-22T03:49:41.494Z,19.34
2019-02-22T03:50:40.942Z,19.28
2019-02-22T03:51:40.916Z,19.34
2019-02-22T03:52:40.893Z,19.28
2019-02-22T03:53:40.881Z,19.31
2019-02-22T03:54:40.877Z,19.24
2019-02-22T03:55:40.869Z,19.34
2019-02-22T03:56:40.841Z,19.27
2019-02-22T03:57:40.832Z,19.28
2019-02-22T03:58:40.823Z,19.32
2019-02-22T03:59:40.820Z,19.27
2019-02-22T04:00:40.818Z,19.28
2019-02-22T04:01:40.789Z,19.32
2019-02-22T04:02:40.786Z,19.32
2019-02-22T04:03:40.764Z,19.24
2019-02-22T04:04:40.759Z,19.21
2019-02-22T04:05:41.015Z,19.23
2019-02-22T04:06:40.747Z,19.28
2019-02-22T04:07:40.738Z,19.32
2019-02-22T04:08:41.008Z,19.32
2019-02-22T04:09:40.701Z,19.25
2019-02-22T04:10:40.709Z,19.28
2019-02-22T04:11:45.825Z,19.16
2019-02-22T04:12:41.679Z,19.16
2019-02-22T04:13:40.662Z,19.32
2019-02-22T04:14:40.654Z,19.23
2019-02-22T04:15:41.012Z,19.31
2019-02-22T04:16:40.629Z,19.27
2019-02-22T04:17:40.621Z,19.17
2019-02-22T04:18:41.011Z,19.31
2019-02-22T04:19:41.016Z,19.21
2019-02-22T04:20:40.647Z,19.16
2019-02-22T04:21:40.576Z,19.31
2019-02-22T04:22:40.567Z,19.27
2019-02-22T04:23:40.570Z,19.32
2019-02-22T04:24:41.005Z,19.25
2019-02-22T04:25:41.002Z,19.38
2019-02-22T04:26:40.526Z,19.20
2019-02-22T04:27:40.510Z,19.31
2019-02-22T04:28:40.507Z,19.30
2019-02-22T04:29:40.489Z,19.23
2019-02-22T04:30:40.496Z,19.30
2019-02-22T04:31:40.473Z,19.30
2019-02-22T04:32:40.460Z,19.32
2019-02-22T04:33:40.447Z,19.32
2019-02-22T04:34:40.441Z,19.23
2019-02-22T04:35:40.464Z,19.30
2019-02-22T04:36:40.424Z,19.15
2019-02-22T04:37:40.404Z,19.30
2019-02-22T04:38:40.533Z,19.21
2019-02-22T04:39:40.390Z,19.30
2019-02-22T04:40:40.383Z,19.27
2019-02-22T04:41:40.377Z,19.17
2019-02-22T04:42:40.359Z,19.30
2019-02-22T04:43:40.351Z,19.30
2019-02-22T04:44:40.500Z,19.30
2019-02-22T04:45:40.364Z,19.24
2019-02-22T04:46:40.321Z,19.17
2019-02-22T04:47:40.304Z,19.23
2019-02-22T04:48:40.504Z,19.30
2019-02-22T04:49:40.278Z,19.31
2019-02-22T04:50:40.268Z,19.21
2019-02-22T04:51:40.255Z,19.28
2019-02-22T04:52:40.511Z,19.28
2019-02-22T04:53:40.238Z,19.21
2019-02-22T04:54:40.224Z,19.28
2019-02-22T04:55:40.212Z,19.30
2019-02-22T04:56:40.217Z,19.23
2019-02-22T04:57:40.201Z,19.15
2019-02-22T04:58:40.191Z,19.21
2019-02-22T04:59:40.176Z,19.27
2019-02-22T05:00:40.510Z,19.23
2019-02-22T05:01:40.147Z,19.28
2019-02-22T05:02:40.139Z,19.23
2019-02-22T05:03:40.520Z,19.23
2019-02-22T05:04:40.134Z,19.31
2019-02-22T05:05:40.103Z,19.23
2019-02-22T05:06:40.094Z,19.24
2019-02-22T05:07:40.088Z,19.32
2019-02-22T05:08:40.098Z,19.25
2019-02-22T05:09:40.068Z,19.23
2019-02-22T05:10:40.051Z,19.28
2019-02-22T05:11:40.037Z,19.25
2019-02-22T05:12:40.037Z,19.23
2019-02-22T05:13:40.017Z,19.21
2019-02-22T05:14:40.524Z,19.30
2019-02-22T05:15:40.011Z,19.27
2019-02-22T05:16:39.999Z,19.24
2019-02-22T05:17:39.990Z,19.24
2019-02-22T05:18:39.976Z,19.24
2019-02-22T05:19:40.029Z,19.30
2019-02-22T05:20:40.032Z,19.17
2019-02-22T05:21:39.931Z,19.21
2019-02-22T05:22:39.927Z,19.32
2019-02-22T05:23:39.918Z,19.15
2019-02-22T05:24:40.012Z,19.27
2019-02-22T05:25:39.896Z,19.28
2019-02-22T05:26:39.892Z,19.30
2019-02-22T05:27:39.874Z,19.28
2019-02-22T05:28:39.859Z,19.31
2019-02-22T05:29:39.843Z,19.25
2019-02-22T05:30:40.027Z,19.28
2019-02-22T05:31:39.824Z,19.28
2019-02-22T05:32:39.823Z,19.20
2019-02-22T05:33:39.803Z,19.28
2019-02-22T05:34:40.029Z,19.30
2019-02-22T05:35:39.791Z,19.30
2019-02-22T05:36:39.787Z,19.28
2019-02-22T05:37:39.759Z,19.16
2019-02-22T05:38:39.777Z,19.24
2019-02-22T05:39:39.736Z,19.30
2019-02-22T05:40:39.728Z,19.17
2019-02-22T05:41:39.715Z,19.28
2019-02-22T05:42:40.027Z,19.17
2019-02-22T05:43:39.702Z,19.28
2019-02-22T05:44:39.708Z,19.20
2019-02-22T05:45:39.707Z,19.28
2019-02-22T05:46:39.662Z,19.20
2019-02-22T05:47:39.653Z,19.16
2019-02-22T05:48:39.642Z,19.23
2019-02-22T05:49:39.643Z,19.15
2019-02-22T05:50:40.026Z,19.20
2019-02-22T05:51:39.618Z,19.30
2019-02-22T05:52:39.603Z,19.20
2019-02-22T05:53:40.045Z,19.16
2019-02-22T05:54:39.588Z,19.17
2019-02-22T05:55:40.522Z,19.27
2019-02-22T05:56:40.511Z,19.17
2019-02-22T05:57:39.554Z,19.23
2019-02-22T05:58:40.034Z,19.23
2019-02-22T05:59:39.521Z,19.17
2019-02-22T06:00:39.529Z,19.24
2019-02-22T06:01:39.787Z,19.15
2019-02-22T06:02:39.502Z,19.23
2019-02-22T06:03:39.536Z,19.17
2019-02-22T06:04:39.470Z,19.20
2019-02-22T06:05:39.462Z,19.32
2019-02-22T06:06:40.001Z,19.31
2019-02-22T06:07:39.615Z,19.31
2019-02-22T06:08:39.447Z,19.34
2019-02-22T06:09:39.544Z,19.38
2019-02-22T06:10:39.412Z,19.45
2019-02-22T06:11:39.402Z,19.38
2019-02-22T06:12:39.403Z,19.45
2019-02-22T06:13:39.373Z,19.38
2019-02-22T06:14:39.371Z,19.43
2019-02-22T06:15:39.350Z,19.39
2019-02-22T06:16:39.344Z,19.34
2019-02-22T06:17:39.339Z,19.42
2019-02-22T06:18:39.341Z,19.40
2019-02-22T06:19:40.027Z,19.43
2019-02-22T06:20:39.302Z,19.38
2019-02-22T06:21:39.524Z,19.38
2019-02-22T06:22:39.282Z,19.40
2019-02-22T06:23:39.304Z,19.35
2019-02-22T06:24:39.302Z,19.40
2019-02-22T06:25:39.533Z,19.39
2019-02-22T06:26:39.233Z,19.38
2019-02-22T06:27:39.234Z,19.38
2019-02-22T06:28:39.217Z,19.40
2019-02-22T06:29:39.201Z,19.43
2019-02-22T06:30:39.561Z,19.40
2019-02-22T06:31:39.197Z,19.39
2019-02-22T06:32:42.081Z,19.39
2019-02-22T06:33:39.178Z,19.38
2019-02-22T06:34:39.159Z,19.40
2019-02-22T06:35:39.150Z,19.39
2019-02-22T06:36:39.555Z,19.43
2019-02-22T06:37:39.552Z,19.42
2019-02-22T06:38:39.117Z,19.40
2019-02-22T06:39:39.111Z,19.42
2019-02-22T06:40:39.096Z,19.35
2019-02-22T06:41:39.544Z,19.42
2019-02-22T06:42:45.845Z,19.34
2019-02-22T06:43:40.063Z,19.34
2019-02-22T06:44:39.039Z,19.40
2019-02-22T06:45:39.042Z,19.42
2019-02-22T06:46:39.034Z,19.35
2019-02-22T06:47:39.013Z,19.42
2019-02-22T06:48:39.015Z,19.39
2019-02-22T06:49:38.981Z,19.40
2019-02-22T06:50:38.973Z,19.32
2019-02-22T06:51:38.965Z,19.38
2019-02-22T06:52:39.047Z,19.40
2019-02-22T06:53:38.960Z,19.43
2019-02-22T06:54:39.050Z,19.40
2019-02-22T06:55:38.921Z,19.42
2019-02-22T06:56:38.909Z,19.40
2019-02-22T06:57:38.895Z,19.35
2019-02-22T06:58:38.911Z,19.38
2019-02-22T06:59:39.037Z,19.32
2019-02-22T07:00:38.878Z,19.32
2019-02-22T07:01:38.874Z,19.32
2019-02-22T07:02:38.859Z,19.39
2019-02-22T07:03:38.848Z,19.39
2019-02-22T07:04:39.070Z,19.34
2019-02-22T07:05:38.837Z,19.30
2019-02-22T07:06:38.827Z,19.38
2019-02-22T07:07:39.031Z,19.28
2019-02-22T07:08:38.787Z,19.32
2019-02-22T07:09:38.865Z,19.31
2019-02-22T07:10:38.776Z,19.30
2019-02-22T07:11:38.758Z,19.31
2019-02-22T07:12:38.754Z,19.39
2019-02-22T07:13:39.546Z,19.35
2019-02-22T07:14:39.539Z,19.35
2019-02-22T07:15:42.022Z,19.35
2019-02-22T07:16:39.701Z,19.34
2019-02-22T07:17:38.784Z,19.34
2019-02-22T07:18:38.800Z,19.30
2019-02-22T07:19:39.518Z,19.31
2019-02-22T07:20:39.544Z,19.32
2019-02-22T07:21:51.838Z,19.38
2019-02-22T07:22:39.639Z,19.31
2019-02-22T07:23:39.523Z,19.31
2019-02-22T07:24:39.527Z,19.34
2019-02-22T07:25:38.622Z,19.34
2019-02-22T07:26:39.568Z,19.35
2019-02-22T07:27:39.534Z,19.39
2019-02-22T07:28:38.576Z,19.31
2019-02-22T07:29:39.538Z,19.28
2019-02-22T07:30:39.528Z,19.34
2019-02-22T07:31:38.556Z,19.28
2019-02-22T07:32:38.544Z,19.35
2019-02-22T07:33:38.522Z,19.21
2019-02-22T07:34:39.034Z,19.28
2019-02-22T07:35:39.045Z,19.28
2019-02-22T07:36:39.023Z,19.32
2019-02-22T07:37:39.030Z,19.31
2019-02-22T07:38:38.472Z,19.39
2019-02-22T07:39:39.053Z,19.34
2019-02-22T07:40:39.030Z,19.35
2019-02-22T07:41:39.045Z,19.34
2019-02-22T07:42:39.077Z,19.30
2019-02-22T07:43:39.025Z,19.32
2019-02-22T07:44:38.432Z,19.32
2019-02-22T07:45:39.037Z,19.30
2019-02-22T07:46:39.030Z,19.32
2019-02-22T07:47:39.049Z,19.38
2019-02-22T07:48:39.035Z,19.34
2019-02-22T07:49:38.346Z,19.35
2019-02-22T07:50:39.043Z,19.32
2019-02-22T07:51:39.042Z,19.32
2019-02-22T07:52:38.735Z,19.31
2019-02-22T07:53:39.028Z,19.35
2019-02-22T07:54:38.323Z,19.38
2019-02-22T07:55:39.024Z,19.35
2019-02-22T07:56:39.037Z,19.38
2019-02-22T07:57:40.063Z,19.39
2019-02-22T07:58:38.597Z,19.43
2019-02-22T07:59:39.037Z,19.40
2019-02-22T08:00:39.038Z,19.43
2019-02-22T08:01:46.835Z,19.43
2019-02-22T08:02:40.073Z,19.35
2019-02-22T08:03:39.031Z,19.42
2019-02-22T08:04:39.075Z,19.45
2019-02-22T08:05:38.176Z,19.40
2019-02-22T08:06:39.027Z,19.35
2019-02-22T08:07:39.028Z,19.43
2019-02-22T08:08:39.087Z,19.40
2019-02-22T08:09:39.048Z,19.38
2019-02-22T08:10:39.094Z,19.39
2019-02-22T08:11:39.041Z,19.39
2019-02-22T08:12:40.015Z,19.40
2019-02-22T08:13:39.047Z,19.35
2019-02-22T08:14:39.067Z,19.43
2019-02-22T08:15:38.071Z,19.38
2019-02-22T08:16:39.034Z,19.40
2019-02-22T08:17:39.037Z,19.43
2019-02-22T08:18:39.035Z,19.39
2019-02-22T08:19:38.100Z,19.42
2019-02-22T08:20:38.017Z,19.43
2019-02-22T08:21:38.057Z,19.40
2019-02-22T08:22:38.532Z,19.42
2019-02-22T08:23:38.047Z,19.40
2019-02-22T08:24:38.553Z,19.35
2019-02-22T08:25:38.587Z,19.42
2019-02-22T08:26:38.538Z,19.42
2019-02-22T08:27:40.009Z,19.34
2019-02-22T08:28:38.542Z,19.39
2019-02-22T08:29:38.537Z,19.39
2019-02-22T08:30:38.591Z,19.35
2019-02-22T08:31:38.547Z,19.40
2019-02-22T08:32:38.591Z,19.40
2019-02-22T08:33:38.553Z,19.34
2019-02-22T08:34:38.567Z,19.47
2019-02-22T08:35:38.688Z,19.32
2019-02-22T08:36:37.876Z,19.34
2019-02-22T08:37:39.573Z,19.39
2019-02-22T08:38:38.555Z,19.35
2019-02-22T08:39:38.547Z,19.42
2019-02-22T08:40:38.548Z,19.45
2019-02-22T08:41:37.827Z,19.50
2019-02-22T08:42:38.585Z,19.46
2019-02-22T08:43:38.550Z,19.46
2019-02-22T08:44:38.855Z,19.53
2019-02-22T08:45:38.539Z,19.50
2019-02-22T08:46:38.415Z,19.47
2019-02-22T08:47:38.057Z,19.58
2019-02-22T08:48:38.117Z,19.49
2019-02-22T08:49:38.578Z,19.55
2019-02-22T08:50:38.544Z,19.57
2019-02-22T08:51:38.560Z,19.62
2019-02-22T08:52:38.079Z,19.52
2019-02-22T08:53:38.567Z,19.61
2019-02-22T08:54:46.509Z,19.58
2019-02-22T08:55:38.660Z,19.50
2019-02-22T08:56:39.384Z,19.49
2019-02-22T08:57:37.668Z,19.52
2019-02-22T08:58:38.545Z,19.50
2019-02-22T08:59:40.740Z,19.60
2019-02-22T09:00:38.540Z,19.52
2019-02-22T09:01:38.550Z,19.55
2019-02-22T09:02:37.596Z,19.53
2019-02-22T09:03:49.490Z,19.52
2019-02-22T09:04:38.554Z,19.50
2019-02-22T09:05:38.112Z,19.53
2019-02-22T09:06:38.039Z,19.55
2019-02-22T09:07:37.564Z,19.55
2019-02-22T09:08:58.570Z,19.46
2019-02-22T09:09:37.517Z,19.57
2019-02-22T09:10:38.043Z,19.53
2019-02-22T09:11:38.041Z,19.60
2019-02-22T09:12:38.052Z,19.58
2019-02-22T09:13:43.597Z,19.61
2019-02-22T09:14:39.052Z,19.57
2019-02-22T09:15:38.057Z,19.58
2019-02-22T09:16:38.073Z,19.67
2019-02-22T09:17:38.055Z,19.65
2019-02-22T09:18:37.577Z,19.58
2019-02-22T09:19:38.055Z,19.71
2019-02-22T09:20:38.074Z,19.62
2019-02-22T09:21:37.556Z,19.65
2019-02-22T09:22:38.084Z,19.61
2019-02-22T09:23:37.359Z,19.60
2019-02-22T09:24:38.060Z,19.68
2019-02-22T09:25:37.581Z,19.65
2019-02-22T09:26:38.068Z,19.65
2019-02-22T09:27:38.056Z,19.68
2019-02-22T09:28:37.292Z,19.65
2019-02-22T09:29:38.054Z,19.64
2019-02-22T09:30:38.080Z,19.62
2019-02-22T09:31:38.047Z,19.62
2019-02-22T09:32:38.046Z,19.65
2019-02-22T09:33:37.254Z,19.61
2019-02-22T09:34:37.597Z,19.72
2019-02-22T09:35:42.711Z,19.68
2019-02-22T09:36:37.220Z,19.72
2019-02-22T09:37:37.573Z,19.68
2019-02-22T09:38:38.059Z,19.72
2019-02-22T09:39:37.176Z,19.70
2019-02-22T09:40:38.058Z,19.68
2019-02-22T09:41:38.047Z,19.76
2019-02-22T09:42:38.080Z,19.68
2019-02-22T09:43:37.586Z,19.76
2019-02-22T09:44:37.136Z,19.65
2019-02-22T09:45:38.066Z,19.70
2019-02-22T09:46:37.584Z,19.72
2019-02-22T09:47:38.049Z,19.79
2019-02-22T09:48:38.061Z,19.79
2019-02-22T09:49:37.082Z,19.72
2019-02-22T09:50:38.062Z,19.83
2019-02-22T09:51:37.079Z,19.79
2019-02-22T09:52:37.577Z,19.82
2019-02-22T09:53:37.588Z,19.83
2019-02-22T09:54:37.018Z,19.80
2019-02-22T09:55:37.653Z,19.82
2019-02-22T09:56:51.175Z,19.80
2019-02-22T09:57:37.622Z,19.80
2019-02-22T09:58:37.565Z,19.82
2019-02-22T09:59:37.559Z,19.85
2019-02-22T10:00:37.567Z,19.78
2019-02-22T10:01:37.558Z,19.90
2019-02-22T10:02:37.568Z,19.86
2019-02-22T10:03:37.110Z,19.85
2019-02-22T10:04:37.653Z,19.83
2019-02-22T10:05:37.563Z,19.78
2019-02-22T10:06:37.584Z,19.82
2019-02-22T10:07:37.588Z,19.85
2019-02-22T10:08:37.646Z,19.86
2019-02-22T10:09:37.569Z,19.83
2019-02-22T10:10:36.852Z,19.92
2019-02-22T10:11:37.566Z,19.79
2019-02-22T10:12:37.933Z,19.86
2019-02-22T10:13:37.573Z,19.80
2019-02-22T10:14:38.052Z,19.80
2019-02-22T10:15:36.781Z,19.80
2019-02-22T10:16:37.552Z,19.87
2019-02-22T10:17:37.571Z,19.87
2019-02-22T10:18:58.100Z,19.90
2019-02-22T10:19:36.755Z,19.79
2019-02-22T10:20:36.727Z,19.83
2019-02-22T10:21:37.564Z,19.83
2019-02-22T10:22:37.102Z,19.89
2019-02-22T10:23:37.586Z,19.87
2019-02-22T10:24:37.605Z,19.90
2019-02-22T10:25:38.645Z,19.92
2019-02-22T10:26:36.697Z,19.82
2019-02-22T10:27:37.586Z,19.79
2019-02-22T10:28:37.564Z,19.87
2019-02-22T10:29:37.584Z,19.87
2019-02-22T10:30:37.577Z,19.87
2019-02-22T10:31:36.613Z,19.85
2019-02-22T10:32:37.085Z,19.92
2019-02-22T10:33:37.569Z,19.92
2019-02-22T10:34:37.628Z,20.01
2019-02-22T10:35:37.619Z,19.89
2019-02-22T10:36:44.703Z,19.97
2019-02-22T10:37:37.549Z,19.97
2019-02-22T10:38:37.062Z,19.94
2019-02-22T10:39:57.603Z,19.95
2019-02-22T10:40:38.632Z,19.97
2019-02-22T10:41:36.547Z,19.92
2019-02-22T10:42:37.073Z,19.92
2019-02-22T10:43:37.073Z,19.92
2019-02-22T10:44:37.093Z,19.94
2019-02-22T10:45:37.141Z,19.95
2019-02-22T10:46:36.611Z,19.95
2019-02-22T10:47:37.074Z,19.92
2019-02-22T10:48:37.095Z,19.98
2019-02-22T10:49:37.063Z,19.90
2019-02-22T10:50:37.076Z,19.98
2019-02-22T10:51:37.083Z,19.94
2019-02-22T10:52:37.062Z,19.90
2019-02-22T10:53:37.065Z,19.97
2019-02-22T10:54:37.089Z,19.95
2019-02-22T10:55:37.077Z,19.92
2019-02-22T10:56:39.150Z,19.97
2019-02-22T10:57:37.121Z,19.94
2019-02-22T10:58:37.084Z,20.01
2019-02-22T10:59:37.118Z,19.97
2019-02-22T11:00:37.076Z,19.98
2019-02-22T11:01:37.120Z,20.00
2019-02-22T11:02:36.590Z,20.01
2019-02-22T11:03:37.228Z,20.07
2019-02-22T11:04:37.076Z,20.00
2019-02-22T11:05:37.089Z,20.05
2019-02-22T11:06:37.096Z,20.04
2019-02-22T11:07:37.356Z,20.05
2019-02-22T11:08:37.067Z,20.08
2019-02-22T11:09:37.070Z,20.07
2019-02-22T11:10:37.369Z,20.05
2019-02-22T11:11:37.238Z,20.15
2019-02-22T11:12:36.595Z,20.16
2019-02-22T11:13:37.067Z,20.08
2019-02-22T11:14:37.071Z,20.16
2019-02-22T11:15:37.067Z,20.07
2019-02-22T11:16:37.091Z,20.07
2019-02-22T11:17:36.112Z,20.07
2019-02-22T11:18:39.290Z,19.98
2019-02-22T11:19:37.103Z,20.05
2019-02-22T11:20:36.582Z,20.02
2019-02-22T11:21:36.623Z,20.02
2019-02-22T11:22:36.580Z,20.05
2019-02-22T11:23:36.571Z,20.16
2019-02-22T11:24:36.649Z,20.08
2019-02-22T11:25:36.586Z,20.10
2019-02-22T11:26:36.577Z,20.13
2019-02-22T11:27:36.577Z,20.12
2019-02-22T11:28:39.556Z,20.10
2019-02-22T11:29:40.390Z,20.16
2019-02-22T11:30:36.575Z,20.13
2019-02-22T11:31:36.601Z,20.15
2019-02-22T11:32:36.132Z,20.16
2019-02-22T11:33:36.096Z,20.02
2019-02-22T11:34:36.110Z,20.10
2019-02-22T11:35:36.597Z,20.10
2019-02-22T11:36:35.907Z,20.13
2019-02-22T11:37:36.573Z,20.10
2019-02-22T11:38:35.933Z,20.16
2019-02-22T11:39:36.589Z,20.10
2019-02-22T11:40:36.579Z,20.04
2019-02-22T11:41:36.603Z,20.10
2019-02-22T11:42:36.576Z,20.10
2019-02-22T11:43:35.842Z,20.10
2019-02-22T11:44:40.219Z,20.10
2019-02-22T11:45:36.582Z,20.12
2019-02-22T11:46:36.585Z,20.17
2019-02-22T11:47:36.614Z,20.02
2019-02-22T11:48:35.842Z,20.07
2019-02-22T11:49:36.576Z,20.02
2019-02-22T11:50:37.052Z,20.02
2019-02-22T11:51:36.579Z,20.07
2019-02-22T11:52:36.582Z,20.07
2019-02-22T11:53:37.552Z,20.10
2019-02-22T11:54:35.718Z,20.07
2019-02-22T11:55:36.585Z,20.07
2019-02-22T11:56:36.583Z,20.07
2019-02-22T11:57:36.576Z,20.08
2019-02-22T11:58:36.622Z,20.07
2019-02-22T11:59:37.093Z,19.98
2019-02-22T12:00:36.593Z,20.04
2019-02-22T12:01:36.593Z,20.08
2019-02-22T12:02:35.658Z,20.02
2019-02-22T12:03:35.621Z,20.02
2019-02-22T12:04:35.603Z,20.05
2019-02-22T12:05:35.587Z,20.02
2019-02-22T12:06:35.616Z,19.98
2019-02-22T12:07:35.553Z,20.05
2019-02-22T12:08:35.548Z,19.97
2019-02-22T12:09:35.552Z,20.01
2019-02-22T12:10:35.540Z,19.98
2019-02-22T12:11:35.519Z,20.10
2019-02-22T12:12:35.549Z,20.00
2019-02-22T12:13:36.105Z,19.98
2019-02-22T12:14:36.096Z,20.01
2019-02-22T12:15:35.517Z,19.98
2019-02-22T12:16:36.098Z,20.00
2019-02-22T12:17:35.472Z,20.00
2019-02-22T12:18:36.587Z,19.94
2019-02-22T12:19:35.439Z,19.98
2019-02-22T12:20:35.443Z,20.02
2019-02-22T12:21:35.439Z,19.97
2019-02-22T12:22:35.389Z,19.95
2019-02-22T12:23:36.102Z,19.97
2019-02-22T12:24:35.394Z,19.92
2019-02-22T12:25:35.371Z,20.05
2019-02-22T12:26:35.355Z,20.05
2019-02-22T12:27:35.382Z,20.07
2019-02-22T12:28:35.615Z,20.05
2019-02-22T12:29:36.123Z,20.15
2019-02-22T12:30:35.331Z,20.13
2019-02-22T12:31:35.624Z,20.13
2019-02-22T12:32:35.285Z,20.13
2019-02-22T12:33:36.099Z,20.08
2019-02-22T12:34:36.105Z,20.10
2019-02-22T12:35:35.612Z,20.12
2019-02-22T12:36:35.259Z,20.17
2019-02-22T12:37:35.239Z,20.15
2019-02-22T12:38:36.104Z,20.12
2019-02-22T12:39:36.258Z,20.17
2019-02-22T12:40:36.125Z,20.20
2019-02-22T12:41:35.189Z,20.15
2019-02-22T12:42:36.086Z,20.15
2019-02-22T12:43:35.162Z,20.17
2019-02-22T12:44:38.239Z,20.15
2019-02-22T12:45:35.610Z,20.17
2019-02-22T12:46:35.150Z,20.17
2019-02-22T12:47:36.120Z,20.01
2019-02-22T12:48:36.088Z,20.05
2019-02-22T12:49:35.263Z,20.10
2019-02-22T12:50:35.611Z,20.10
2019-02-22T12:51:35.139Z,20.15
2019-02-22T12:52:35.609Z,20.02
2019-02-22T12:53:35.599Z,20.10